Amado, Arizona
Current Conditions -  °F | °C
As of 3:54 AM on Thursday 23 Oct 2014 (Local Time) from KOLS Reporting Station
Clear Clear  
Wind Chill: 11°   Ceiling: Unl
Heat Index: 11°   Visibility: 10mi
Dew Point:   Wind: 5mph
Humidity: 77%   Direction: 80°E
Pressure: 30.1"   Gusts: NA
Location:  31.71°N, 111.07°W
Report Text: KOLS 231054Z AUTO 08004KT 10SM CLR 11/07 A3010 RMK AO2 SLP141 T01060067
Loading
Personal Weather Stations






























Interactive Weather Map
Tropical Storm Tracking
New forecast layout! Learn more

10-Day Weather Forecast

Advertisements
Track Severe Weather on mobile